Time;durP1;ratioP1;P1;durP2;ratioP2;P2;SDS_P1;SDS_P2;PMS_P1;PMS_P2;Temp;Humidity;BMP_temperature;BMP_pressure;BME280_temperature;BME280_humidity;BME280_pressure;Samples;Min_cycle;Max_cycle;Signal;HPM_P1;HPM_P2
2023/06/08 00:00:00;;;;;;;9.50;8.00;;;;;;;13.09;100.00;93778.06;4988553;28;20034;-59
2023/06/08 00:02:28;;;;;;;10.80;8.05;;;;;;;13.18;100.00;93777.44;4989763;28;20050;-59
2023/06/08 00:04:57;;;;;;;11.45;8.23;;;;;;;13.13;100.00;93775.22;4987912;28;20044;-59
2023/06/08 00:07:24;;;;;;;10.05;7.53;;;;;;;13.17;100.00;93773.91;4988583;28;20105;-58
2023/06/08 00:09:51;;;;;;;10.00;7.70;;;;;;;13.21;100.00;93771.06;4988094;28;20495;-58
2023/06/08 00:12:18;;;;;;;10.00;7.53;;;;;;;13.21;100.00;93775.81;4988878;28;20046;-60
2023/06/08 00:14:45;;;;;;;10.27;7.60;;;;;;;13.15;100.00;93784.59;4987899;28;20103;-58
2023/06/08 00:17:13;;;;;;;11.23;8.20;;;;;;;13.11;100.00;93774.88;4988968;28;20103;-58
2023/06/08 00:19:42;;;;;;;10.50;8.18;;;;;;;13.09;100.00;93769.78;4988003;28;20046;-62
2023/06/08 00:22:12;;;;;;;10.13;8.10;;;;;;;13.09;100.00;93769.03;4988542;28;20103;-58
2023/06/08 00:24:40;;;;;;;12.33;8.17;;;;;;;13.07;100.00;93768.69;4988266;28;20055;-65
2023/06/08 00:27:09;;;;;;;11.23;8.90;;;;;;;12.77;100.00;93757.66;4987439;28;20054;-58
2023/06/08 00:29:35;;;;;;;10.38;8.35;;;;;;;12.88;100.00;93757.38;4991416;28;20503;-59
2023/06/08 00:32:03;;;;;;;10.60;8.45;;;;;;;12.84;100.00;93753.16;5008166;28;20046;-58
2023/06/08 00:34:30;;;;;;;9.90;8.20;;;;;;;12.82;100.00;93750.06;5008251;28;20073;-58
2023/06/08 00:36:56;;;;;;;9.93;7.90;;;;;;;12.79;100.00;93752.47;5007247;28;20107;-61
2023/06/08 00:39:24;;;;;;;10.75;8.07;;;;;;;12.71;100.00;93753.88;5008240;28;20041;-59
2023/06/08 00:41:51;;;;;;;12.45;8.00;;;;;;;12.69;100.00;93756.28;5007667;28;20077;-58
2023/06/08 00:44:17;;;;;;;10.90;8.05;;;;;;;12.64;100.00;93759.59;5008388;28;20042;-59
2023/06/08 00:46:45;;;;;;;10.52;8.23;;;;;;;12.52;100.00;93757.53;5022772;28;20447;-59
2023/06/08 00:49:17;;;;;;;10.90;7.80;;;;;;;12.34;100.00;93758.75;5008236;28;20344;-58
2023/06/08 00:51:45;;;;;;;9.68;7.72;;;;;;;12.30;100.00;93760.06;5007472;28;20042;-58
2023/06/08 00:54:14;;;;;;;10.65;7.90;;;;;;;12.27;100.00;93747.91;5008145;28;20049;-58
2023/06/08 00:56:48;;;;;;;10.95;7.93;;;;;;;12.24;100.00;93750.78;5007530;28;20065;-64
2023/06/08 00:59:16;;;;;;;9.77;8.05;;;;;;;12.18;100.00;93745.78;5009792;28;20096;-58
2023/06/08 01:01:44;;;;;;;10.60;8.07;;;;;;;12.22;100.00;93744.91;5011360;28;20054;-59
2023/06/08 01:04:14;;;;;;;10.23;7.93;;;;;;;12.12;100.00;93747.50;5011989;28;20072;-58
2023/06/08 01:06:46;;;;;;;11.10;8.48;;;;;;;11.90;100.00;93749.97;5011385;28;20701;-62
2023/06/08 01:09:51;;;;;;;13.13;9.32;;;;;;;11.92;100.00;93747.56;5011899;28;20042;-59
2023/06/08 01:12:35;;;;;;;20.67;14.68;;;;;;;11.87;100.00;93744.50;4950183;28;20978;-58
2023/06/08 01:15:23;;;;;;;13.03;9.60;;;;;;;11.75;100.00;93745.94;5006979;28;21996;-58
2023/06/08 01:17:57;;;;;;;12.02;8.90;;;;;;;11.84;100.00;93743.41;5011095;28;20410;-58
2023/06/08 01:20:46;;;;;;;11.02;8.93;;;;;;;11.87;100.00;93739.00;5010397;28;20064;-59
2023/06/08 01:23:34;;;;;;;10.73;8.48;;;;;;;11.78;100.00;93745.13;5010928;28;20042;-62
2023/06/08 01:26:04;;;;;;;11.05;8.43;;;;;;;11.57;100.00;93738.13;5010339;28;20668;-58
2023/06/08 01:28:31;;;;;;;11.47;8.57;;;;;;;11.22;100.00;93745.91;5026453;28;20050;-58
2023/06/08 01:30:58;;;;;;;12.07;8.93;;;;;;;11.29;100.00;93734.78;4996366;28;20050;-61
2023/06/08 01:33:29;;;;;;;13.98;9.00;;;;;;;11.37;100.00;93732.66;4991892;28;20042;-59
2023/06/08 01:36:15;;;;;;;11.27;9.20;;;;;;;11.44;100.00;93738.00;4991221;28;20151;-58
2023/06/08 01:38:47;;;;;;;16.13;12.23;;;;;;;11.53;100.00;93737.41;4991166;28;20042;-58
2023/06/08 01:41:23;;;;;;;11.53;9.13;;;;;;;11.54;100.00;93731.50;4991621;28;20152;-59
2023/06/08 01:43:51;;;;;;;13.82;9.10;;;;;;;11.56;100.00;93728.31;4990948;28;20054;-58
2023/06/08 01:46:21;;;;;;;12.23;9.32;;;;;;;11.53;100.00;93729.97;4991700;28;20045;-58
2023/06/08 01:48:50;;;;;;;13.18;8.98;;;;;;;11.49;100.00;93737.50;4990835;28;20065;-58
2023/06/08 01:51:19;;;;;;;14.73;10.38;;;;;;;11.31;100.00;93743.38;4991680;28;20046;-58
2023/06/08 01:53:45;;;;;;;14.63;10.30;;;;;;;11.30;100.00;93735.56;4990491;28;20058;-63
2023/06/08 01:56:13;;;;;;;13.35;9.93;;;;;;;11.37;100.00;93733.44;4990335;28;20046;-58
2023/06/08 01:58:40;;;;;;;14.77;10.10;;;;;;;11.47;100.00;93739.91;4991013;28;20112;-59
2023/06/08 02:01:07;;;;;;;12.48;9.63;;;;;;;11.48;100.00;93737.91;4989835;28;20054;-61
2023/06/08 02:03:33;;;;;;;13.30;9.73;;;;;;;11.49;100.00;93729.25;4991447;28;20050;-60
2023/06/08 02:06:00;;;;;;;11.50;9.17;;;;;;;11.53;100.00;93735.44;4990172;28;20556;-59
2023/06/08 02:08:27;;;;;;;13.77;9.38;;;;;;;11.48;100.00;93735.19;4991226;28;20042;-61
2023/06/08 02:10:54;;;;;;;12.70;9.15;;;;;;;11.50;100.00;93733.53;4989943;28;20068;-59
2023/06/08 02:13:20;;;;;;;12.00;9.15;;;;;;;11.53;100.00;93734.66;4991095;28;20057;-59
2023/06/08 02:15:47;;;;;;;11.65;9.10;;;;;;;11.49;100.00;93737.50;4990382;28;20072;-62
2023/06/08 02:18:14;;;;;;;12.50;9.50;;;;;;;11.50;100.00;93739.03;4991162;28;20046;-59
2023/06/08 02:20:41;;;;;;;56.85;32.78;;;;;;;11.45;100.00;93736.81;4990495;28;20506;-62
2023/06/08 02:23:08;;;;;;;22.50;15.73;;;;;;;11.22;100.00;93740.41;4990892;28;20050;-58
2023/06/08 02:25:35;;;;;;;14.23;10.80;;;;;;;11.25;100.00;93738.78;4990770;28;20046;-58
2023/06/08 02:28:02;;;;;;;12.50;9.73;;;;;;;11.25;100.00;93744.28;4990782;28;20042;-58
2023/06/08 02:30:29;;;;;;;14.63;10.23;;;;;;;11.24;100.00;93745.50;5001387;28;20057;-58
2023/06/08 02:32:55;;;;;;;13.90;9.95;;;;;;;11.27;100.00;93744.63;5009788;28;20095;-61
2023/06/08 02:35:22;;;;;;;11.90;9.77;;;;;;;11.23;100.00;93744.72;5010564;28;20141;-59
2023/06/08 02:37:50;;;;;;;12.50;9.18;;;;;;;11.22;100.00;93745.16;5009495;28;20050;-58
2023/06/08 02:40:17;;;;;;;12.68;9.63;;;;;;;11.12;100.00;93742.19;5010222;28;20069;-58
2023/06/08 02:42:44;;;;;;;11.87;9.73;;;;;;;11.08;100.00;93744.22;5009647;28;20050;-59
2023/06/08 02:45:11;;;;;;;13.05;9.13;;;;;;;11.09;100.00;93748.53;5009919;28;20410;-61
2023/06/08 02:47:37;;;;;;;11.43;9.30;;;;;;;11.07;100.00;93742.69;5024906;28;20052;-60
2023/06/08 02:50:04;;;;;;;12.48;9.02;;;;;;;11.06;100.00;93735.63;5024844;28;20465;-58
2023/06/08 02:52:32;;;;;;;12.52;9.57;;;;;;;10.99;100.00;93742.06;5008635;28;20052;-58
2023/06/08 02:54:58;;;;;;;13.90;10.70;;;;;;;10.97;100.00;93743.69;5009340;28;20045;-58
2023/06/08 02:57:25;;;;;;;12.65;10.02;;;;;;;11.00;100.00;93742.81;5009994;28;20352;-58
2023/06/08 02:59:52;;;;;;;12.32;9.63;;;;;;;10.96;100.00;93736.63;5008875;28;20064;-62
2023/06/08 03:02:19;;;;;;;11.80;9.40;;;;;;;10.97;100.00;93740.94;5009917;28;20049;-59
2023/06/08 03:04:46;;;;;;;12.55;9.80;;;;;;;10.94;100.00;93742.53;5009392;28;20061;-61
2023/06/08 03:07:17;;;;;;;12.57;9.67;;;;;;;10.92;100.00;93744.91;5024469;28;20050;-58
2023/06/08 03:09:44;;;;;;;12.00;9.35;;;;;;;10.85;100.00;93745.06;5024405;28;20513;-58
2023/06/08 03:12:13;;;;;;;12.07;9.40;;;;;;;10.83;100.00;93749.44;5009276;28;20073;-61
2023/06/08 03:14:40;;;;;;;12.05;9.40;;;;;;;10.82;100.00;93745.91;5008571;28;20050;-62
2023/06/08 03:17:08;;;;;;;11.52;8.85;;;;;;;10.73;100.00;93749.22;5009151;28;20107;-58
2023/06/08 03:19:35;;;;;;;11.83;8.70;;;;;;;10.68;100.00;93741.44;5007704;28;20049;-56
2023/06/08 03:22:04;;;;;;;11.00;8.27;;;;;;;10.67;100.00;93742.66;5008525;28;20044;-58
2023/06/08 03:24:32;;;;;;;11.25;9.15;;;;;;;10.63;100.00;93741.19;5009564;28;20398;-58
2023/06/08 03:27:01;;;;;;;11.60;8.52;;;;;;;10.62;100.00;93737.66;5004496;28;20038;-58
2023/06/08 03:29:29;;;;;;;12.20;9.25;;;;;;;10.57;100.00;93736.16;4990460;28;20049;-58
2023/06/08 03:31:57;;;;;;;11.90;9.20;;;;;;;10.61;100.00;93729.84;5008493;28;20048;-58
2023/06/08 03:34:27;;;;;;;11.93;9.52;;;;;;;10.67;100.00;93734.44;5009371;28;20038;-58
2023/06/08 03:36:55;;;;;;;12.52;10.27;;;;;;;10.67;100.00;93744.63;5006743;28;20054;-58
2023/06/08 03:39:22;;;;;;;12.07;9.20;;;;;;;10.67;100.00;93739.91;5009301;28;20068;-58
2023/06/08 03:41:49;;;;;;;12.57;9.43;;;;;;;10.61;100.00;93738.09;5008376;28;20125;-58
2023/06/08 03:44:16;;;;;;;11.67;9.27;;;;;;;10.65;100.00;93736.06;5008908;28;20046;-59
2023/06/08 03:46:43;;;;;;;13.18;9.52;;;;;;;10.62;100.00;93734.91;5008985;28;20048;-59
2023/06/08 03:49:10;;;;;;;12.52;10.32;;;;;;;10.64;100.00;93731.75;5024173;28;20045;-59
2023/06/08 03:51:37;;;;;;;13.40;10.10;;;;;;;10.69;100.00;93729.28;5007414;28;20119;-60
2023/06/08 03:54:04;;;;;;;12.32;10.15;;;;;;;10.83;100.00;93730.22;5008728;28;20046;-58
2023/06/08 03:56:31;;;;;;;14.30;9.40;;;;;;;10.75;100.00;93737.81;5007625;28;20053;-58
2023/06/08 03:58:58;;;;;;;13.07;9.48;;;;;;;10.78;100.00;93732.28;5008083;28;20111;-58
2023/06/08 04:01:27;;;;;;;15.48;10.52;;;;;;;10.85;100.00;93734.09;5008641;28;20042;-58
2023/06/08 04:03:53;;;;;;;12.25;9.40;;;;;;;10.86;100.00;93735.63;5007780;28;20038;-63
2023/06/08 04:06:20;;;;;;;12.48;9.38;;;;;;;10.86;100.00;93741.13;5007423;28;20520;-61
2023/06/08 04:08:47;;;;;;;12.23;9.27;;;;;;;10.86;100.00;93734.88;5008417;28;20458;-59
2023/06/08 04:11:14;;;;;;;13.27;9.20;;;;;;;10.98;100.00;93735.00;5008548;28;20537;-58
2023/06/08 04:13:41;;;;;;;12.77;9.98;;;;;;;11.13;100.00;93743.75;5006808;28;20058;-58
2023/06/08 04:16:09;;;;;;;12.52;10.02;;;;;;;11.25;100.00;93736.03;5008412;28;20115;-59
2023/06/08 04:18:41;;;;;;;11.98;9.85;;;;;;;11.35;100.00;93735.06;5008240;28;20049;-61
2023/06/08 04:21:08;;;;;;;11.47;9.43;;;;;;;11.45;100.00;93736.81;5007134;28;20034;-58
2023/06/08 04:23:36;;;;;;;12.93;9.98;;;;;;;11.47;100.00;93730.88;5023029;28;20515;-57
2023/06/08 04:26:05;;;;;;;12.10;9.77;;;;;;;11.54;100.00;93730.72;5008178;28;20049;-58
2023/06/08 04:28:33;;;;;;;13.82;10.45;;;;;;;11.97;100.00;93735.25;5008612;28;20041;-58
2023/06/08 04:31:01;;;;;;;11.82;9.68;;;;;;;13.03;100.00;93721.94;4992327;28;21780;-58
2023/06/08 04:33:28;;;;;;;11.27;9.83;;;;;;;13.40;100.00;93725.28;4988692;28;20050;-62
2023/06/08 04:35:56;;;;;;;12.43;9.68;;;;;;;13.45;100.00;93727.47;4988459;28;20050;-65
2023/06/08 04:38:25;;;;;;;13.20;9.80;;;;;;;13.03;100.00;93721.19;4988742;28;20548;-60
2023/06/08 04:40:53;;;;;;;12.52;9.23;;;;;;;12.97;100.00;93723.69;4988260;28;20054;-59
2023/06/08 04:43:21;;;;;;;11.93;9.98;;;;;;;12.88;100.00;93718.06;4988757;28;20108;-59
2023/06/08 04:45:57;;;;;;;10.47;8.60;;;;;;;13.07;100.00;93714.38;4988432;28;20057;-59
2023/06/08 04:48:27;;;;;;;11.88;9.60;;;;;;;13.05;100.00;93719.53;4988802;28;20043;-59
2023/06/08 04:50:59;;;;;;;11.10;9.00;;;;;;;13.07;100.00;93722.63;4988108;28;20056;-58
2023/06/08 04:53:33;;;;;;;11.18;9.57;;;;;;;13.05;100.00;93716.78;4988765;28;20050;-59
2023/06/08 04:56:02;;;;;;;11.55;9.70;;;;;;;12.89;100.00;93720.34;4987877;28;20048;-59
2023/06/08 04:58:30;;;;;;;13.77;9.70;;;;;;;13.14;100.00;93718.91;4988621;28;20049;-59
2023/06/08 05:00:57;;;;;;;10.43;8.82;;;;;;;13.27;100.00;93721.69;4986745;28;20693;-64
2023/06/08 05:03:25;;;;;;;11.88;9.45;;;;;;;13.72;100.00;93721.56;4987242;28;20046;-59
2023/06/08 05:05:52;;;;;;;10.45;9.20;;;;;;;13.57;100.00;93723.97;4988111;28;20049;-62
2023/06/08 05:08:19;;;;;;;11.73;9.52;;;;;;;13.80;100.00;93724.88;4988213;28;20484;-58
2023/06/08 05:10:46;;;;;;;11.33;9.80;;;;;;;14.30;100.00;93726.03;4988210;28;20371;-58
2023/06/08 05:13:13;;;;;;;13.52;9.82;;;;;;;14.63;100.00;93725.78;4988195;28;20042;-60
2023/06/08 05:15:40;;;;;;;11.05;9.20;;;;;;;15.45;100.00;93721.31;4987768;28;20047;-60
2023/06/08 05:18:06;;;;;;;10.48;8.80;;;;;;;15.76;100.00;93722.16;5019591;28;20364;-62
2023/06/08 05:20:33;;;;;;;11.40;9.60;;;;;;;15.40;100.00;93727.47;4988606;28;20072;-59
2023/06/08 05:23:00;;;;;;;11.97;9.60;;;;;;;15.69;100.00;93725.13;4987288;28;20038;-59
2023/06/08 05:25:29;;;;;;;11.05;9.27;;;;;;;15.79;100.00;93720.47;5019518;28;20050;-59
2023/06/08 05:27:57;;;;;;;13.18;9.63;;;;;;;17.21;95.99;93722.63;5018541;28;20043;-59
2023/06/08 05:30:25;;;;;;;11.48;9.25;;;;;;;18.69;84.94;93709.00;5022803;28;20407;-59
2023/06/08 05:32:52;;;;;;;11.70;8.60;;;;;;;17.84;88.09;93717.44;5007690;28;20069;-57
2023/06/08 05:35:19;;;;;;;10.37;8.50;;;;;;;17.61;88.64;93711.31;5007660;28;20049;-58
2023/06/08 05:37:46;;;;;;;11.52;9.13;;;;;;;18.94;83.65;93711.31;5005844;28;20410;-57
2023/06/08 05:40:13;;;;;;;9.63;8.35;;;;;;;18.51;82.97;93707.88;5007655;28;20113;-60
2023/06/08 05:42:40;;;;;;;10.27;8.63;;;;;;;20.68;72.16;93712.72;5007392;28;20053;-56
2023/06/08 05:45:07;;;;;;;8.40;7.60;;;;;;;22.99;64.65;93702.91;5008638;28;20435;-57
2023/06/08 05:47:34;;;;;;;8.20;6.83;;;;;;;24.10;57.31;93706.50;5011542;28;20042;-58
2023/06/08 05:50:01;;;;;;;10.13;8.00;;;;;;;25.37;51.05;93704.50;5010281;28;21505;-57
2023/06/08 05:52:30;;;;;;;7.93;7.13;;;;;;;24.94;50.28;93702.09;5011175;28;20061;-58
2023/06/08 05:54:58;;;;;;;8.23;7.18;;;;;;;24.25;52.42;93705.53;5025640;28;20190;-60
2023/06/08 05:57:25;;;;;;;8.07;7.28;;;;;;;25.00;50.80;93702.84;5010975;28;20049;-59
2023/06/08 05:59:51;;;;;;;8.27;6.90;;;;;;;26.25;45.98;93700.88;5010669;28;20418;-58
2023/06/08 06:02:18;;;;;;;7.30;6.53;;;;;;;25.79;46.54;93699.66;5009684;28;20050;-60
2023/06/08 06:04:45;;;;;;;9.00;7.07;;;;;;;26.56;44.68;93701.66;5025904;28;20041;-57
2023/06/08 06:07:13;;;;;;;7.57;6.85;;;;;;;25.08;45.57;93706.63;5010864;28;20587;-57
2023/06/08 06:09:39;;;;;;;7.70;6.90;;;;;;;24.60;47.87;93704.22;5009097;28;20042;-58
2023/06/08 06:12:07;;;;;;;10.37;7.23;;;;;;;25.78;44.95;93705.84;5010585;28;20052;-58
2023/06/08 06:14:41;;;;;;;8.13;6.97;;;;;;;24.61;46.47;93700.91;5010957;28;20061;-59
2023/06/08 06:17:08;;;;;;;8.35;6.75;;;;;;;24.60;48.01;93698.63;5009680;28;20583;-57
2023/06/08 06:19:36;;;;;;;8.48;6.85;;;;;;;25.73;45.44;93698.94;5010352;28;20046;-56
2023/06/08 06:22:08;;;;;;;7.50;6.80;;;;;;;27.57;41.24;93690.56;5010499;28;20048;-57
2023/06/08 06:24:35;;;;;;;9.10;7.27;;;;;;;27.25;41.03;93694.81;5010817;28;20054;-60
2023/06/08 06:27:03;;;;;;;8.35;6.60;;;;;;;28.58;38.74;93685.50;5008163;28;20042;-59
2023/06/08 06:29:30;;;;;;;7.80;6.47;;;;;;;27.79;40.53;93689.47;5008069;28;20038;-58
2023/06/08 06:31:57;;;;;;;8.25;6.35;;;;;;;26.26;42.72;93693.25;5005501;28;20108;-58
2023/06/08 06:34:24;;;;;;;8.52;6.75;;;;;;;23.90;48.67;93693.53;4990786;28;20122;-60
2023/06/08 06:36:50;;;;;;;8.10;7.10;;;;;;;23.00;52.54;93698.06;4990397;28;20550;-58
2023/06/08 06:39:20;;;;;;;8.27;7.03;;;;;;;22.72;54.67;93693.88;5005516;28;20052;-57
2023/06/08 06:41:48;;;;;;;8.27;7.38;;;;;;;23.57;54.03;93702.63;4990169;28;20046;-60
2023/06/08 06:44:15;;;;;;;8.95;6.80;;;;;;;25.97;48.96;93706.72;4990427;28;20042;-58
2023/06/08 06:46:43;;;;;;;7.82;7.03;;;;;;;28.11;42.32;93695.22;4990299;28;20062;-59
2023/06/08 06:49:10;;;;;;;9.37;6.73;;;;;;;30.84;37.78;93696.28;4990510;28;20043;-58
2023/06/08 06:51:39;;;;;;;9.10;6.30;;;;;;;32.11;34.04;93696.63;4990262;28;20065;-58
2023/06/08 06:54:06;;;;;;;6.55;5.88;;;;;;;33.80;30.80;93690.13;4990284;28;20047;-58
2023/06/08 06:56:32;;;;;;;8.18;5.90;;;;;;;32.00;31.34;93685.63;4990573;28;20050;-58
2023/06/08 06:58:59;;;;;;;8.00;6.10;;;;;;;30.70;33.94;93688.44;4989883;28;20042;-59
2023/06/08 07:01:26;;;;;;;7.47;6.37;;;;;;;30.93;34.00;93689.41;4990286;28;20042;-58
2023/06/08 07:03:53;;;;;;;6.85;5.85;;;;;;;33.48;30.57;93682.25;4989801;28;20104;-59
2023/06/08 07:06:24;;;;;;;6.75;6.00;;;;;;;33.14;30.89;93677.78;4990014;28;20053;-58
2023/06/08 07:08:51;;;;;;;7.85;5.55;;;;;;;34.10;28.67;93677.81;4988706;28;20068;-59
2023/06/08 07:11:17;;;;;;;7.75;6.05;;;;;;;34.64;28.14;93674.66;4989971;28;20054;-61
2023/06/08 07:13:44;;;;;;;6.10;5.50;;;;;;;35.84;26.04;93682.47;4989897;28;20043;-58
2023/06/08 07:16:11;;;;;;;6.40;5.00;;;;;;;36.12;25.45;93684.00;4989969;28;20050;-59
2023/06/08 07:18:38;;;;;;;6.57;5.30;;;;;;;35.94;24.36;93683.28;4989715;28;20199;-62
2023/06/08 07:21:05;;;;;;;7.53;5.45;;;;;;;33.38;26.99;93687.75;4989617;28;20042;-64
2023/06/08 07:23:32;;;;;;;6.05;5.30;;;;;;;36.06;25.08;93680.66;4989940;28;20050;-59
2023/06/08 07:26:19;;;;;;;9.60;5.70;;;;;;;32.24;27.35;93682.28;4988743;28;20370;-60
2023/06/08 07:28:58;;;;;;;5.70;5.10;;;;;;;31.11;27.12;93692.53;4989393;28;20884;-62
2023/06/08 07:31:26;;;;;;;5.88;5.22;;;;;;;28.29;30.72;93691.59;5007454;28;20053;-58
2023/06/08 07:33:57;;;;;;;6.65;5.13;;;;;;;30.69;27.60;93689.75;5009008;28;20487;-61
2023/06/08 07:36:27;;;;;;;7.95;5.50;;;;;;;30.82;29.14;93692.50;5008761;28;20692;-60
2023/06/08 07:38:56;;;;;;;8.27;5.80;;;;;;;28.20;32.46;93696.88;5008801;28;20042;-58
2023/06/08 07:41:26;;;;;;;6.63;5.50;;;;;;;27.23;33.67;93691.00;5008836;28;20073;-58
2023/06/08 07:43:53;;;;;;;6.70;5.93;;;;;;;25.39;35.51;93701.94;5008716;28;20406;-57
2023/06/08 07:46:20;;;;;;;8.05;5.78;;;;;;;25.91;35.26;93708.81;5008691;28;20050;-61
2023/06/08 07:48:47;;;;;;;7.70;5.90;;;;;;;26.70;33.85;93708.97;5008623;28;20046;-59
2023/06/08 07:51:17;;;;;;;7.03;5.70;;;;;;;26.11;35.81;93705.59;5008724;28;20498;-60
2023/06/08 07:53:43;;;;;;;6.45;5.78;;;;;;;26.76;34.36;93716.59;5008766;28;20053;-60
2023/06/08 07:56:10;;;;;;;8.75;5.80;;;;;;;26.47;34.34;93718.88;5023959;28;20414;-58
2023/06/08 07:58:37;;;;;;;7.55;5.97;;;;;;;24.92;37.61;93715.88;5008303;28;20050;-61
2023/06/08 08:01:04;;;;;;;7.20;6.00;;;;;;;24.95;37.50;93714.09;5001521;28;20050;-58
2023/06/08 08:03:36;;;;;;;8.77;5.93;;;;;;;25.16;37.39;93706.88;4988436;28;20049;-59
2023/06/08 08:06:05;;;;;;;6.75;6.05;;;;;;;26.08;36.81;93712.28;4985564;28;20344;-58
2023/06/08 08:08:32;;;;;;;6.68;5.97;;;;;;;26.93;35.53;93719.25;4988668;28;20526;-57
2023/06/08 08:10:59;;;;;;;7.35;6.22;;;;;;;26.46;37.71;93715.31;4988709;28;20046;-57
2023/06/08 08:13:27;;;;;;;7.03;6.32;;;;;;;26.58;37.78;93721.63;4988272;28;20054;-60
2023/06/08 08:15:54;;;;;;;7.30;6.00;;;;;;;27.13;35.59;93727.22;4988949;28;20052;-60
2023/06/08 08:18:21;;;;;;;7.10;5.70;;;;;;;26.95;35.89;93725.09;5002811;28;20038;-61
2023/06/08 08:20:47;;;;;;;7.15;6.07;;;;;;;27.44;35.47;93725.81;4988040;28;20049;-59
2023/06/08 08:23:14;;;;;;;8.07;6.28;;;;;;;27.26;35.46;93726.56;4988544;28;20044;-59
2023/06/08 08:25:41;;;;;;;8.10;6.22;;;;;;;26.88;36.01;93732.84;4988082;28;20052;-60
2023/06/08 08:28:08;;;;;;;6.70;6.00;;;;;;;25.99;37.63;93742.78;4987844;28;20047;-63
2023/06/08 08:30:35;;;;;;;7.57;6.43;;;;;;;26.01;38.93;93734.56;4999983;28;20042;-58
2023/06/08 08:33:02;;;;;;;7.88;6.90;;;;;;;25.25;41.81;93733.91;4987729;28;20052;-58
2023/06/08 08:35:31;;;;;;;8.85;6.90;;;;;;;24.68;43.53;93733.28;4988062;28;20048;-58
2023/06/08 08:37:58;;;;;;;8.65;7.47;;;;;;;24.65;44.29;93745.53;4987908;28;20103;-58
2023/06/08 08:40:25;;;;;;;9.23;7.20;;;;;;;24.65;45.24;93745.53;4988326;28;20041;-62
2023/06/08 08:43:00;;;;;;;9.38;7.25;;;;;;;24.02;45.38;93741.19;4987675;28;20054;-60
2023/06/08 08:45:31;;;;;;;7.95;6.80;;;;;;;23.81;45.62;93744.22;4988215;28;20410;-57
2023/06/08 08:48:01;;;;;;;8.20;6.90;;;;;;;23.62;44.59;93752.28;4988157;28;20107;-59
2023/06/08 08:50:34;;;;;;;7.00;6.03;;;;;;;23.21;45.88;93763.09;4988039;28;20038;-57
2023/06/08 08:53:01;;;;;;;8.10;6.10;;;;;;;21.96;46.22;93772.59;4986976;28;20853;-57
2023/06/08 08:55:29;;;;;;;7.35;6.05;;;;;;;21.90;45.35;93774.56;4988120;28;20392;-60
2023/06/08 08:58:02;;;;;;;9.48;5.88;;;;;;;22.34;45.31;93779.06;4987563;28;20052;-59
2023/06/08 09:00:32;;;;;;;7.78;5.80;;;;;;;22.49;44.67;93764.91;4987796;28;20060;-59
2023/06/08 09:03:00;;;;;;;7.03;5.50;;;;;;;22.74;42.89;93760.53;4987533;28;20053;-60
2023/06/08 09:05:27;;;;;;;6.47;5.00;;;;;;;22.53;41.17;93759.88;4987903;28;20052;-60
2023/06/08 09:07:55;;;;;;;6.10;4.85;;;;;;;22.57;41.82;93768.78;4987745;28;20112;-59
2023/06/08 09:10:25;;;;;;;6.75;5.40;;;;;;;22.53;41.49;93760.63;4988040;28;20502;-59
2023/06/08 09:12:54;;;;;;;6.03;4.95;;;;;;;22.00;42.73;93778.72;4987334;28;20103;-62
2023/06/08 09:15:33;;;;;;;7.85;5.03;;;;;;;21.68;44.63;93787.03;4988297;28;20039;-61
2023/06/08 09:18:13;;;;;;;6.57;5.07;;;;;;;21.48;46.60;93773.09;4987525;28;20846;-60
2023/06/08 09:20:40;;;;;;;7.50;4.80;;;;;;;21.19;45.29;93771.19;4989515;28;20039;-60
2023/06/08 09:23:33;;;;;;;7.38;5.15;;;;;;;20.60;46.16;93772.19;5006964;28;20502;-63
2023/06/08 09:26:00;;;;;;;6.38;5.00;;;;;;;20.97;45.71;93772.47;4990952;28;20182;-61
2023/06/08 09:28:31;;;;;;;7.13;5.03;;;;;;;20.76;46.64;93763.28;4991309;28;20053;-60
2023/06/08 09:30:58;;;;;;;6.57;5.07;;;;;;;20.67;46.21;93757.84;5006255;28;20064;-59
2023/06/08 09:33:27;;;;;;;6.63;5.10;;;;;;;20.75;46.53;93754.16;5006474;28;20400;-59
2023/06/08 09:35:57;;;;;;;7.30;4.80;;;;;;;20.81;44.45;93739.53;5005863;28;20057;-62
2023/06/08 09:38:26;;;;;;;6.97;4.80;;;;;;;21.10;43.27;93735.84;4991010;28;20042;-65
2023/06/08 09:41:17;;;;;;;7.30;4.80;;;;;;;20.71;44.46;93717.34;4989971;28;20104;-61
2023/06/08 09:43:45;;;;;;;6.50;5.00;;;;;;;20.26;44.81;93721.47;4988859;28;20054;-55
2023/06/08 09:46:31;;;;;;;6.60;4.63;;;;;;;20.67;45.90;93708.41;4991101;28;20052;-66
2023/06/08 09:48:58;;;;;;;9.35;4.88;;;;;;;20.90;44.59;93700.34;5022224;28;20113;-61
2023/06/08 09:51:25;;;;;;;8.05;4.90;;;;;;;21.06;44.96;93701.81;4994452;28;20056;-59
2023/06/08 09:53:57;;;;;;;6.47;4.75;;;;;;;21.62;44.91;93702.44;4991167;28;20113;-59
2023/06/08 09:56:27;;;;;;;6.43;4.60;;;;;;;21.64;46.26;93701.94;4991044;28;20050;-61
2023/06/08 09:58:58;;;;;;;7.57;5.18;;;;;;;21.94;46.28;93705.25;5005287;28;20522;-59
2023/06/08 10:01:33;;;;;;;7.75;5.10;;;;;;;21.96;46.08;93704.78;4990597;28;20069;-59
2023/06/08 10:04:06;;;;;;;6.88;5.10;;;;;;;21.84;44.18;93710.25;4990266;28;20700;-59
2023/06/08 10:06:35;;;;;;;6.70;4.97;;;;;;;21.84;43.10;93710.25;5021663;28;20054;-62
2023/06/08 10:09:06;;;;;;;8.13;4.63;;;;;;;21.85;42.70;93711.81;4990445;28;20381;-60
2023/06/08 10:11:33;;;;;;;6.20;4.70;;;;;;;21.72;43.24;93711.41;4990614;28;20155;-63
2023/06/08 10:14:01;;;;;;;6.95;4.85;;;;;;;22.08;42.85;93709.19;4989833;28;21499;-62
2023/06/08 10:16:28;;;;;;;7.18;5.10;;;;;;;22.51;42.06;93712.81;4990768;28;20066;-59
2023/06/08 10:18:56;;;;;;;7.03;4.88;;;;;;;21.81;41.74;93716.84;4990246;28;20080;-61
2023/06/08 10:21:24;;;;;;;6.40;4.97;;;;;;;21.04;44.99;93713.44;4989521;28;20048;-63
2023/06/08 10:23:51;;;;;;;7.35;4.68;;;;;;;21.34;45.79;93713.28;4990323;28;20050;-58
2023/06/08 10:26:18;;;;;;;6.32;4.95;;;;;;;21.57;44.88;93717.13;4990441;28;20038;-59
2023/06/08 10:29:04;;;;;;;6.75;4.75;;;;;;;21.99;44.36;93714.94;4989579;28;20038;-59
2023/06/08 10:31:47;;;;;;;6.95;4.57;;;;;;;22.53;42.87;93713.06;4982002;28;20432;-59
2023/06/08 10:34:15;;;;;;;7.53;4.47;;;;;;;22.39;42.98;93719.59;4989933;28;20058;-60
2023/06/08 10:36:43;;;;;;;6.93;4.82;;;;;;;22.18;42.49;93723.75;4989550;28;20085;-59
2023/06/08 10:39:12;;;;;;;6.03;4.75;;;;;;;22.12;42.83;93730.06;4990735;28;20046;-62
2023/06/08 10:41:40;;;;;;;6.38;4.60;;;;;;;22.10;43.04;93723.44;4985088;28;20081;-62
2023/06/08 10:44:26;;;;;;;6.90;4.70;;;;;;;22.01;43.31;93727.16;4982261;28;20516;-60
2023/06/08 10:48:36;;;;;;;6.40;4.68;;;;;;;22.19;45.60;93725.28;5064829;28;20883;-62
2023/06/08 10:51:04;;;;;;;6.68;5.10;;;;;;;21.54;47.28;93732.06;5063670;28;20416;-56
2023/06/08 10:55:28;;;;;;;7.22;5.38;;;;;;;20.92;49.12;93748.03;5050608;28;20475;-58
2023/06/08 10:58:05;;;;;;;6.63;5.40;;;;;;;20.84;50.60;93742.09;5064227;28;20491;-60
2023/06/08 11:00:42;;;;;;;8.27;5.78;;;;;;;20.32;46.23;93756.56;5063470;28;20041;-58
2023/06/08 11:03:10;;;;;;;9.13;6.15;;;;;;;18.56;52.39;93759.25;5037850;28;20357;-61
2023/06/08 11:05:41;;;;;;;8.23;5.70;;;;;;;18.00;56.40;93755.19;5021717;28;20049;-54
2023/06/08 11:08:09;;;;;;;7.50;5.78;;;;;;;18.29;56.54;93737.94;5037148;28;20041;-59
2023/06/08 11:10:41;;;;;;;6.97;5.50;;;;;;;17.78;61.52;93706.16;5034076;28;20038;-55
2023/06/08 11:13:10;;;;;;;6.13;5.00;;;;;;;18.31;60.34;93705.69;5037573;28;20037;-58
2023/06/08 11:15:42;;;;;;;9.30;5.32;;;;;;;18.91;61.29;93689.25;5039367;28;20049;-53
2023/06/08 11:18:10;;;;;;;6.07;4.90;;;;;;;19.19;56.65;93678.66;5037166;28;20037;-57
2023/06/08 11:20:40;;;;;;;7.82;5.55;;;;;;;19.60;66.38;93684.47;5035494;28;20049;-53
2023/06/08 11:23:08;;;;;;;8.20;5.13;;;;;;;20.18;71.53;93675.75;5039799;28;20037;-62
2023/06/08 11:25:36;;;;;;;7.68;5.25;;;;;;;20.44;75.59;93679.44;5034818;28;20116;-55
2023/06/08 11:28:03;;;;;;;6.88;5.40;;;;;;;20.37;64.25;93674.28;5036520;28;20052;-57
2023/06/08 11:30:31;;;;;;;7.22;5.40;;;;;;;20.79;68.89;93667.50;5036205;28;20052;-54
2023/06/08 11:32:59;;;;;;;7.60;5.20;;;;;;;21.63;65.71;93667.66;5035723;28;20409;-57
2023/06/08 11:35:26;;;;;;;7.53;5.40;;;;;;;22.18;64.74;93659.47;5038364;28;20045;-54